createdAt,value
2019-03-15T00:00:29.679Z,3.00
2019-03-15T00:01:05.589Z,2.70
2019-03-15T00:01:42.698Z,3.13
2019-03-15T00:02:21.542Z,3.10
2019-03-15T00:02:57.284Z,2.87
2019-03-15T00:03:32.810Z,3.30
2019-03-15T00:04:08.330Z,2.90
2019-03-15T00:04:44.094Z,2.90
2019-03-15T00:05:19.874Z,3.23
2019-03-15T00:05:55.689Z,3.27
2019-03-15T00:06:31.467Z,3.17
2019-03-15T00:07:07.198Z,2.53
2019-03-15T00:07:42.620Z,2.60
2019-03-15T00:08:18.917Z,3.03
2019-03-15T00:08:54.356Z,3.20
2019-03-15T00:09:30.346Z,2.73
2019-03-15T00:10:06.766Z,2.50
2019-03-15T00:10:42.549Z,2.87
2019-03-15T00:11:18.274Z,2.87
2019-03-15T00:11:54.018Z,2.93
2019-03-15T00:12:29.439Z,3.13
2019-03-15T00:13:04.883Z,3.23
2019-03-15T00:13:40.327Z,3.20
2019-03-15T00:14:16.101Z,3.10
2019-03-15T00:14:51.537Z,2.73
2019-03-15T00:15:26.944Z,3.03
2019-03-15T00:16:02.664Z,2.90
2019-03-15T00:16:38.088Z,3.07
2019-03-15T00:17:13.868Z,2.70
2019-03-15T00:17:49.285Z,2.40
2019-03-15T00:18:24.726Z,3.10
2019-03-15T00:19:00.141Z,3.00
2019-03-15T00:19:36.334Z,2.77
2019-03-15T00:20:11.771Z,3.40
2019-03-15T00:20:47.196Z,3.70
2019-03-15T00:21:22.717Z,2.50
2019-03-15T00:21:58.461Z,2.97
2019-03-15T00:22:34.214Z,3.10
2019-03-15T00:23:10.440Z,2.70
2019-03-15T00:23:45.957Z,2.23
2019-03-15T00:24:21.528Z,3.07
2019-03-15T00:24:56.944Z,2.70
2019-03-15T00:25:32.365Z,3.23
2019-03-15T00:26:08.112Z,2.77
2019-03-15T00:26:43.524Z,3.67
2019-03-15T00:27:18.939Z,2.90
2019-03-15T00:27:54.756Z,3.40
2019-03-15T00:28:30.198Z,3.87
2019-03-15T00:29:06.244Z,3.00
2019-03-15T00:29:41.948Z,2.80
2019-03-15T00:30:17.678Z,3.33
2019-03-15T00:30:53.468Z,3.57
2019-03-15T00:31:29.324Z,2.93
2019-03-15T00:32:04.927Z,2.80
2019-03-15T00:32:40.650Z,3.50
2019-03-15T00:33:16.073Z,3.20
2019-03-15T00:33:51.627Z,3.37
2019-03-15T00:34:27.103Z,2.97
2019-03-15T00:35:02.533Z,3.53
2019-03-15T00:35:37.990Z,3.23
2019-03-15T00:36:13.525Z,3.37
2019-03-15T00:36:48.923Z,3.40
2019-03-15T00:37:24.351Z,2.83
2019-03-15T00:37:59.769Z,3.03
2019-03-15T00:38:35.232Z,2.93
2019-03-15T00:39:10.655Z,2.53
2019-03-15T00:39:46.080Z,3.20
2019-03-15T00:40:21.487Z,2.67
2019-03-15T00:40:57.224Z,3.20
2019-03-15T00:41:32.644Z,2.90
2019-03-15T00:42:08.463Z,3.70
2019-03-15T00:42:44.048Z,3.13
2019-03-15T00:43:19.783Z,3.13
2019-03-15T00:43:55.233Z,3.17
2019-03-15T00:44:30.981Z,3.00
2019-03-15T00:45:08.329Z,2.80
2019-03-15T00:45:44.010Z,3.43
2019-03-15T00:46:19.659Z,3.37
2019-03-15T00:46:55.481Z,3.20
2019-03-15T00:47:31.301Z,2.90
2019-03-15T00:48:07.093Z,3.07
2019-03-15T00:48:42.842Z,3.60
2019-03-15T00:49:18.252Z,3.60
2019-03-15T00:49:53.670Z,3.13
2019-03-15T00:50:29.200Z,2.87
2019-03-15T00:51:04.634Z,3.13
2019-03-15T00:51:40.387Z,2.53
2019-03-15T00:52:15.818Z,3.17
2019-03-15T00:52:51.229Z,3.17
2019-03-15T00:53:26.655Z,3.30
2019-03-15T00:54:02.449Z,2.97
2019-03-15T00:54:37.855Z,3.57
2019-03-15T00:55:13.306Z,3.17
2019-03-15T00:55:48.715Z,3.50
2019-03-15T00:56:24.124Z,3.17
2019-03-15T00:56:59.895Z,3.27
2019-03-15T00:57:35.828Z,4.13
2019-03-15T00:58:11.237Z,3.83
2019-03-15T00:58:47.001Z,3.30
2019-03-15T00:59:22.740Z,3.20
2019-03-15T00:59:58.157Z,3.13
2019-03-15T01:00:33.596Z,3.90
2019-03-15T01:01:09.051Z,3.60
2019-03-15T01:01:45.561Z,3.07
2019-03-15T01:02:21.450Z,3.67
2019-03-15T01:02:57.418Z,3.43
2019-03-15T01:03:32.859Z,3.60
2019-03-15T01:04:09.630Z,3.60
2019-03-15T01:04:45.611Z,3.73
2019-03-15T01:05:21.028Z,3.33
2019-03-15T01:05:56.444Z,3.90
2019-03-15T01:06:31.881Z,3.63
2019-03-15T01:07:07.608Z,3.40
2019-03-15T01:07:43.374Z,3.43
2019-03-15T01:08:18.798Z,3.87
2019-03-15T01:08:54.284Z,3.70
2019-03-15T01:09:30.324Z,4.27
2019-03-15T01:10:06.126Z,3.67
2019-03-15T01:10:41.814Z,3.87
2019-03-15T01:11:17.227Z,2.67
2019-03-15T01:11:52.632Z,3.67
2019-03-15T01:12:28.321Z,3.20
2019-03-15T01:13:03.740Z,3.43
2019-03-15T01:13:39.154Z,3.53
2019-03-15T01:14:14.924Z,3.57
2019-03-15T01:14:50.366Z,3.27
2019-03-15T01:15:25.789Z,3.40
2019-03-15T01:16:01.195Z,3.57
2019-03-15T01:16:36.975Z,3.20
2019-03-15T01:17:12.384Z,3.27
2019-03-15T01:17:48.154Z,3.07
2019-03-15T01:18:23.579Z,3.17
2019-03-15T01:18:59.100Z,3.50
2019-03-15T01:19:34.543Z,3.80
2019-03-15T01:20:09.985Z,3.27
2019-03-15T01:20:45.379Z,3.00
2019-03-15T01:21:21.052Z,3.97
2019-03-15T01:21:56.898Z,3.40
2019-03-15T01:22:32.638Z,3.37
2019-03-15T01:23:08.505Z,3.57
2019-03-15T01:23:44.364Z,3.70
2019-03-15T01:24:20.578Z,3.40
2019-03-15T01:24:56.322Z,2.90
2019-03-15T01:25:31.737Z,3.57
2019-03-15T01:26:07.404Z,3.40
2019-03-15T01:26:43.132Z,3.20
2019-03-15T01:27:18.869Z,3.37
2019-03-15T01:27:54.632Z,3.17
2019-03-15T01:28:30.457Z,3.97
2019-03-15T01:29:05.910Z,3.03
2019-03-15T01:29:41.318Z,3.30
2019-03-15T01:30:20.430Z,3.33
2019-03-15T01:30:55.967Z,2.77
2019-03-15T01:31:31.392Z,3.00
2019-03-15T01:32:06.838Z,3.23
2019-03-15T01:32:42.275Z,2.80
2019-03-15T01:33:17.695Z,3.57
2019-03-15T01:33:53.453Z,3.10
2019-03-15T01:34:29.261Z,3.47
2019-03-15T01:35:05.140Z,3.40
2019-03-15T01:35:40.822Z,3.20
2019-03-15T01:36:16.226Z,3.00
2019-03-15T01:36:51.637Z,3.13
2019-03-15T01:37:27.742Z,3.67
2019-03-15T01:38:03.162Z,3.20
2019-03-15T01:38:38.882Z,3.40
2019-03-15T01:39:14.308Z,3.17
2019-03-15T01:39:49.718Z,3.53
2019-03-15T01:40:25.137Z,3.63
2019-03-15T01:41:00.915Z,3.60
2019-03-15T01:41:36.658Z,3.50
2019-03-15T01:42:12.391Z,3.67
2019-03-15T01:42:48.047Z,3.37
2019-03-15T01:43:23.406Z,3.53
2019-03-15T01:43:58.844Z,2.83
2019-03-15T01:44:34.651Z,3.10
2019-03-15T01:45:10.276Z,2.90
2019-03-15T01:45:46.066Z,3.70
2019-03-15T01:46:21.483Z,3.50
2019-03-15T01:46:57.631Z,3.33
2019-03-15T01:47:33.056Z,3.00
2019-03-15T01:48:08.485Z,3.43
2019-03-15T01:48:43.917Z,3.27
2019-03-15T01:49:19.379Z,3.30
2019-03-15T01:49:54.774Z,3.73
2019-03-15T01:50:30.211Z,3.33
2019-03-15T01:51:05.664Z,3.97
2019-03-15T01:51:41.581Z,3.00
2019-03-15T01:52:17.435Z,2.83
2019-03-15T01:52:52.861Z,3.73
2019-03-15T01:53:28.365Z,3.37
2019-03-15T01:54:03.773Z,2.93
2019-03-15T01:54:39.659Z,3.20
2019-03-15T01:55:15.084Z,3.20
2019-03-15T01:55:50.854Z,3.10
2019-03-15T01:56:27.308Z,2.90
2019-03-15T01:57:03.388Z,3.27
2019-03-15T01:57:38.792Z,3.60
2019-03-15T01:58:14.218Z,3.17
2019-03-15T01:58:50.287Z,3.10
2019-03-15T01:59:26.017Z,3.03
2019-03-15T02:00:01.461Z,3.37
2019-03-15T02:00:37.079Z,2.77
2019-03-15T02:01:12.494Z,3.17
2019-03-15T02:01:48.275Z,3.63
2019-03-15T02:02:24.064Z,3.07
2019-03-15T02:03:02.077Z,2.50
2019-03-15T02:03:36.583Z,3.07
2019-03-15T02:04:12.376Z,3.60
2019-03-15T02:04:47.878Z,2.80
2019-03-15T02:05:23.632Z,3.03
2019-03-15T02:05:59.415Z,2.97
2019-03-15T02:06:34.828Z,3.30
2019-03-15T02:07:10.556Z,3.20
2019-03-15T02:07:45.984Z,3.03
2019-03-15T02:08:21.837Z,2.60
2019-03-15T02:08:57.243Z,3.57
2019-03-15T02:09:33.166Z,3.00
2019-03-15T02:10:09.162Z,3.03
2019-03-15T02:10:44.639Z,3.37
2019-03-15T02:11:20.047Z,3.40
2019-03-15T02:11:55.610Z,3.30
2019-03-15T02:12:31.497Z,3.70
2019-03-15T02:13:06.919Z,2.87
2019-03-15T02:13:42.349Z,3.10
2019-03-15T02:14:18.111Z,2.90
2019-03-15T02:14:53.679Z,2.70
2019-03-15T02:15:29.068Z,3.30
2019-03-15T02:16:04.841Z,3.83
2019-03-15T02:16:40.350Z,3.20
2019-03-15T02:17:16.120Z,3.20
2019-03-15T02:17:52.679Z,3.23
2019-03-15T02:18:28.530Z,3.00
2019-03-15T02:19:03.985Z,2.90
2019-03-15T02:19:39.802Z,3.40
2019-03-15T02:20:16.086Z,2.83
2019-03-15T02:20:51.489Z,3.93
2019-03-15T02:21:27.207Z,3.00
2019-03-15T02:22:02.963Z,3.30
2019-03-15T02:22:38.363Z,3.43
2019-03-15T02:23:13.767Z,3.23
2019-03-15T02:23:49.510Z,3.47
2019-03-15T02:24:24.961Z,2.97
2019-03-15T02:25:00.767Z,3.13
2019-03-15T02:25:36.611Z,3.10
2019-03-15T02:26:12.338Z,3.07
2019-03-15T02:26:48.491Z,2.87
2019-03-15T02:27:23.935Z,3.13
2019-03-15T02:27:59.781Z,3.10
2019-03-15T02:28:35.310Z,3.03
2019-03-15T02:29:10.742Z,2.83
2019-03-15T02:29:46.188Z,3.37
2019-03-15T02:30:21.603Z,3.53
2019-03-15T02:30:57.460Z,3.10
2019-03-15T02:31:33.322Z,3.10
2019-03-15T02:32:09.027Z,3.70
2019-03-15T02:32:44.785Z,2.80
2019-03-15T02:33:20.211Z,3.60
2019-03-15T02:33:55.631Z,3.67
2019-03-15T02:34:31.202Z,3.57
2019-03-15T02:35:06.839Z,3.67
2019-03-15T02:35:42.977Z,2.90
2019-03-15T02:36:18.686Z,3.67
2019-03-15T02:36:54.123Z,2.77
2019-03-15T02:37:30.193Z,3.10
2019-03-15T02:38:05.708Z,2.90
2019-03-15T02:38:41.134Z,3.40
2019-03-15T02:39:16.538Z,2.80
2019-03-15T02:39:52.010Z,3.90
2019-03-15T02:40:27.426Z,2.93
2019-03-15T02:41:02.853Z,3.43
2019-03-15T02:41:38.655Z,3.00
2019-03-15T02:42:14.070Z,3.37
2019-03-15T02:42:49.514Z,3.03
2019-03-15T02:43:25.538Z,3.40
2019-03-15T02:44:01.295Z,3.27
2019-03-15T02:44:39.123Z,3.00
2019-03-15T02:45:15.236Z,3.43
2019-03-15T02:45:50.668Z,2.90
2019-03-15T02:46:26.099Z,3.43
2019-03-15T02:47:01.607Z,3.23
2019-03-15T02:47:37.076Z,2.93
2019-03-15T02:48:13.574Z,3.93
2019-03-15T02:48:49.635Z,3.40
2019-03-15T02:49:25.130Z,3.53
2019-03-15T02:50:01.296Z,3.23
2019-03-15T02:50:37.520Z,3.60
2019-03-15T02:51:12.949Z,3.37
2019-03-15T02:51:49.939Z,3.10
2019-03-15T02:52:26.039Z,3.43
2019-03-15T02:53:01.454Z,2.83
2019-03-15T02:53:37.214Z,2.67
2019-03-15T02:54:12.709Z,3.23
2019-03-15T02:54:48.539Z,3.53
2019-03-15T02:55:23.992Z,3.53
2019-03-15T02:55:59.434Z,3.83
2019-03-15T02:56:34.899Z,3.87
2019-03-15T02:57:10.362Z,3.60
2019-03-15T02:57:45.804Z,3.20
2019-03-15T02:58:21.243Z,3.33
2019-03-15T02:58:57.086Z,3.90
2019-03-15T02:59:32.534Z,3.53
2019-03-15T03:00:08.028Z,3.43
2019-03-15T03:00:43.822Z,3.43
2019-03-15T03:01:19.896Z,3.93
2019-03-15T03:01:55.305Z,3.67
2019-03-15T03:02:30.740Z,3.30
2019-03-15T03:03:06.528Z,4.07
2019-03-15T03:03:42.465Z,3.83
2019-03-15T03:04:17.876Z,2.93
2019-03-15T03:04:53.335Z,3.57
2019-03-15T03:05:28.764Z,3.73
2019-03-15T03:06:05.011Z,3.40
2019-03-15T03:06:40.806Z,3.77
2019-03-15T03:07:16.219Z,3.70
2019-03-15T03:07:52.234Z,3.57
2019-03-15T03:08:27.681Z,3.67
2019-03-15T03:09:03.116Z,3.90
2019-03-15T03:09:38.876Z,3.97
2019-03-15T03:10:15.685Z,3.50
2019-03-15T03:10:51.108Z,3.90
2019-03-15T03:11:26.629Z,4.23
2019-03-15T03:12:02.452Z,4.23
2019-03-15T03:12:38.274Z,3.93
2019-03-15T03:13:13.710Z,3.90
2019-03-15T03:13:49.306Z,3.97
2019-03-15T03:14:24.742Z,3.57
2019-03-15T03:15:00.294Z,4.57
2019-03-15T03:15:35.907Z,4.23
2019-03-15T03:16:11.336Z,4.10
2019-03-15T03:16:46.791Z,4.40
2019-03-15T03:17:22.210Z,3.97
2019-03-15T03:17:58.682Z,3.87
2019-03-15T03:18:34.660Z,4.13
2019-03-15T03:19:10.337Z,4.33
2019-03-15T03:19:46.264Z,4.60
2019-03-15T03:20:22.098Z,4.67
2019-03-15T03:20:57.513Z,4.33
2019-03-15T03:21:32.981Z,4.30
2019-03-15T03:22:09.252Z,4.70
2019-03-15T03:22:45.192Z,4.47
2019-03-15T03:23:20.603Z,4.37
2019-03-15T03:23:57.325Z,4.47
2019-03-15T03:24:33.201Z,4.33
2019-03-15T03:25:09.086Z,4.50
2019-03-15T03:25:44.755Z,5.07
2019-03-15T03:26:20.326Z,4.13
2019-03-15T03:26:56.462Z,5.03
2019-03-15T03:27:31.894Z,4.73
2019-03-15T03:28:07.633Z,4.23
2019-03-15T03:28:43.077Z,5.00
2019-03-15T03:29:19.984Z,4.80
2019-03-15T03:29:55.804Z,4.40
2019-03-15T03:30:31.953Z,4.33
2019-03-15T03:31:07.423Z,4.47
2019-03-15T03:31:44.268Z,4.37
2019-03-15T03:32:19.966Z,4.60
2019-03-15T03:32:55.759Z,5.43
2019-03-15T03:33:31.183Z,5.00
2019-03-15T03:34:07.055Z,4.80
2019-03-15T03:34:42.533Z,5.20
2019-03-15T03:35:18.012Z,4.67
2019-03-15T03:35:53.473Z,4.70
2019-03-15T03:36:29.230Z,4.77
2019-03-15T03:37:05.213Z,4.63
2019-03-15T03:37:40.773Z,4.90
2019-03-15T03:38:16.238Z,4.63
2019-03-15T03:38:51.665Z,5.13
2019-03-15T03:39:27.141Z,5.07
2019-03-15T03:40:03.034Z,5.43
2019-03-15T03:40:38.943Z,5.10
2019-03-15T03:41:14.432Z,4.70
2019-03-15T03:41:49.867Z,5.27
2019-03-15T03:42:25.413Z,5.17
2019-03-15T03:43:01.196Z,5.77
2019-03-15T03:43:37.332Z,5.70
2019-03-15T03:44:13.454Z,5.17
2019-03-15T03:44:49.202Z,4.77
2019-03-15T03:45:25.040Z,4.80
2019-03-15T03:46:00.844Z,5.23
2019-03-15T03:46:36.411Z,5.57
2019-03-15T03:47:11.897Z,5.13
2019-03-15T03:47:47.339Z,5.33
2019-03-15T03:48:22.809Z,5.40
2019-03-15T03:48:58.494Z,4.47
2019-03-15T03:49:34.253Z,4.40
2019-03-15T03:50:10.170Z,4.57
2019-03-15T03:50:45.627Z,4.97
2019-03-15T03:51:21.421Z,4.60
2019-03-15T03:51:57.202Z,5.00
2019-03-15T03:52:33.268Z,5.20
2019-03-15T03:53:09.065Z,4.87
2019-03-15T03:53:44.512Z,5.40
2019-03-15T03:54:20.465Z,5.73
2019-03-15T03:54:56.378Z,5.40
2019-03-15T03:55:31.815Z,5.10
2019-03-15T03:56:07.374Z,4.80
2019-03-15T03:56:43.519Z,5.03
2019-03-15T03:57:19.035Z,5.27
2019-03-15T03:57:54.555Z,5.77
2019-03-15T03:58:30.317Z,5.17
2019-03-15T03:59:05.786Z,4.80
2019-03-15T03:59:41.358Z,5.13
2019-03-15T04:00:17.060Z,5.23
2019-03-15T04:00:52.540Z,5.23
2019-03-15T04:01:28.216Z,5.57
2019-03-15T04:02:03.756Z,5.27
2019-03-15T04:02:39.243Z,5.20
2019-03-15T04:03:15.109Z,5.40
2019-03-15T04:03:50.897Z,4.97
2019-03-15T04:04:26.798Z,4.43
2019-03-15T04:05:02.216Z,5.20
2019-03-15T04:05:38.029Z,5.43
2019-03-15T04:06:13.479Z,4.77
2019-03-15T04:06:48.897Z,6.23
2019-03-15T04:07:24.579Z,4.93
2019-03-15T04:08:00.732Z,5.10
2019-03-15T04:08:36.654Z,5.43
2019-03-15T04:09:12.118Z,5.27
2019-03-15T04:09:47.879Z,4.97
2019-03-15T04:10:23.596Z,5.37
2019-03-15T04:10:59.153Z,5.63
2019-03-15T04:11:34.878Z,4.70
2019-03-15T04:12:10.323Z,5.30
2019-03-15T04:12:46.454Z,5.30
2019-03-15T04:13:21.944Z,5.07
2019-03-15T04:13:57.396Z,5.37
2019-03-15T04:14:32.855Z,5.50
2019-03-15T04:15:08.346Z,5.17
2019-03-15T04:15:44.339Z,5.53
2019-03-15T04:16:20.493Z,5.53
2019-03-15T04:16:55.925Z,6.17
2019-03-15T04:17:31.674Z,5.73
2019-03-15T04:18:07.412Z,5.20
2019-03-15T04:18:43.154Z,5.43
2019-03-15T04:19:19.297Z,6.03
2019-03-15T04:19:54.717Z,5.50
2019-03-15T04:20:30.178Z,6.33
2019-03-15T04:21:05.761Z,5.87
2019-03-15T04:21:41.524Z,5.80
2019-03-15T04:22:17.258Z,6.20
2019-03-15T04:22:55.284Z,4.77
2019-03-15T04:23:30.426Z,4.60
2019-03-15T04:24:05.935Z,5.43
2019-03-15T04:24:41.390Z,5.60
2019-03-15T04:25:17.150Z,5.67
2019-03-15T04:25:52.671Z,5.97
2019-03-15T04:26:28.127Z,5.63
2019-03-15T04:27:03.608Z,6.17
2019-03-15T04:27:39.193Z,5.13
2019-03-15T04:28:14.635Z,5.90
2019-03-15T04:28:50.362Z,5.73
2019-03-15T04:29:25.890Z,5.90
2019-03-15T04:30:01.827Z,5.97
2019-03-15T04:30:38.493Z,5.97
2019-03-15T04:31:14.095Z,6.47
2019-03-15T04:31:49.856Z,6.27
2019-03-15T04:32:25.377Z,5.87
2019-03-15T04:33:00.834Z,5.20
2019-03-15T04:33:36.319Z,5.20
2019-03-15T04:34:11.988Z,5.67
2019-03-15T04:34:48.056Z,5.60
2019-03-15T04:35:23.485Z,6.10
2019-03-15T04:35:58.944Z,5.47
2019-03-15T04:36:34.669Z,5.47
2019-03-15T04:37:10.101Z,5.30
2019-03-15T04:37:45.874Z,5.77
2019-03-15T04:38:21.576Z,5.87
2019-03-15T04:38:57.035Z,6.10
2019-03-15T04:39:32.909Z,5.70
2019-03-15T04:40:09.208Z,4.93
2019-03-15T04:40:44.975Z,5.70
2019-03-15T04:41:20.431Z,5.47
2019-03-15T04:41:55.974Z,5.80
2019-03-15T04:42:31.412Z,5.37
2019-03-15T04:43:07.139Z,5.90
2019-03-15T04:43:42.953Z,5.63
2019-03-15T04:44:18.392Z,5.10
2019-03-15T04:44:54.120Z,5.60
2019-03-15T04:45:30.157Z,5.73
2019-03-15T04:46:05.614Z,6.23
2019-03-15T04:46:41.085Z,5.90
2019-03-15T04:47:16.597Z,5.77
2019-03-15T04:47:52.308Z,4.87
2019-03-15T04:48:28.255Z,5.63
2019-03-15T04:49:03.720Z,5.50
2019-03-15T04:49:39.686Z,5.60
2019-03-15T04:50:17.848Z,5.67
2019-03-15T04:50:53.571Z,5.43
2019-03-15T04:51:29.666Z,5.60
2019-03-15T04:52:05.119Z,5.60
2019-03-15T04:52:40.589Z,5.33
2019-03-15T04:53:16.329Z,5.77
2019-03-15T04:53:51.993Z,5.67
2019-03-15T04:54:27.806Z,5.30
2019-03-15T04:55:03.576Z,5.97
2019-03-15T04:55:39.731Z,6.00
2019-03-15T04:56:15.437Z,5.17
2019-03-15T04:56:50.850Z,5.60
2019-03-15T04:57:26.400Z,5.70
2019-03-15T04:58:02.157Z,5.30
2019-03-15T04:58:38.416Z,5.80
2019-03-15T04:59:14.247Z,5.57
2019-03-15T04:59:50.026Z,5.70
2019-03-15T05:00:25.585Z,5.00
2019-03-15T05:01:00.988Z,5.03
2019-03-15T05:01:36.551Z,5.80
2019-03-15T05:02:11.996Z,5.23
2019-03-15T05:02:47.422Z,4.90
2019-03-15T05:03:22.995Z,6.20
2019-03-15T05:03:59.051Z,5.20
2019-03-15T05:04:34.803Z,5.70
2019-03-15T05:05:10.540Z,5.30
2019-03-15T05:05:46.323Z,6.43
2019-03-15T05:06:22.122Z,5.97
2019-03-15T05:06:57.858Z,5.73
2019-03-15T05:07:33.644Z,6.23
2019-03-15T05:08:09.451Z,5.77
2019-03-15T05:08:44.941Z,5.70
2019-03-15T05:09:20.382Z,5.67
2019-03-15T05:09:56.149Z,5.60
2019-03-15T05:10:31.895Z,5.33
2019-03-15T05:11:07.355Z,5.13
2019-03-15T05:11:43.294Z,5.47
2019-03-15T05:12:19.140Z,6.07
2019-03-15T05:12:54.867Z,5.50
2019-03-15T05:13:30.596Z,5.40
2019-03-15T05:14:06.379Z,6.03
2019-03-15T05:14:41.803Z,5.30
2019-03-15T05:15:17.228Z,5.27
2019-03-15T05:15:53.028Z,5.83
2019-03-15T05:16:29.195Z,6.33
2019-03-15T05:17:04.958Z,5.30
2019-03-15T05:17:40.691Z,5.80
2019-03-15T05:18:16.429Z,5.40
2019-03-15T05:18:51.873Z,5.63
2019-03-15T05:19:27.403Z,6.43
2019-03-15T05:20:02.828Z,6.77
2019-03-15T05:20:38.606Z,6.13
2019-03-15T05:21:14.124Z,5.40
2019-03-15T05:21:49.651Z,5.30
2019-03-15T05:22:25.100Z,6.13
2019-03-15T05:23:01.120Z,5.93
2019-03-15T05:23:36.869Z,5.87
2019-03-15T05:24:12.612Z,6.10
2019-03-15T05:24:48.348Z,5.93
2019-03-15T05:25:23.803Z,6.43
2019-03-15T05:25:59.635Z,6.07
2019-03-15T05:26:35.088Z,6.20
2019-03-15T05:27:10.943Z,6.93
2019-03-15T05:27:46.683Z,5.60
2019-03-15T05:28:22.106Z,5.57
2019-03-15T05:28:58.003Z,6.10
2019-03-15T05:29:33.444Z,5.77
2019-03-15T05:30:09.965Z,6.00
2019-03-15T05:30:45.395Z,6.63
2019-03-15T05:31:21.707Z,6.13
2019-03-15T05:31:57.448Z,5.27
2019-03-15T05:32:32.923Z,6.90
2019-03-15T05:33:08.735Z,6.77
2019-03-15T05:33:44.464Z,6.63
2019-03-15T05:34:20.204Z,6.60
2019-03-15T05:34:56.352Z,6.53
2019-03-15T05:35:32.138Z,6.47
2019-03-15T05:36:07.583Z,6.23
2019-03-15T05:36:43.380Z,5.90
2019-03-15T05:37:19.115Z,7.27
2019-03-15T05:37:54.559Z,6.20
2019-03-15T05:38:30.135Z,6.43
2019-03-15T05:39:07.219Z,6.97
2019-03-15T05:39:42.656Z,6.27
2019-03-15T05:40:18.152Z,6.40
2019-03-15T05:40:53.866Z,6.07
2019-03-15T05:41:29.796Z,6.43
2019-03-15T05:42:05.320Z,7.03
2019-03-15T05:42:40.800Z,6.17
2019-03-15T05:43:16.624Z,5.80
2019-03-15T05:43:53.263Z,5.93
2019-03-15T05:44:29.161Z,6.57
2019-03-15T05:45:05.089Z,6.60
2019-03-15T05:45:40.528Z,7.30
2019-03-15T05:46:15.951Z,6.97
2019-03-15T05:46:51.484Z,6.73
2019-03-15T05:47:27.323Z,7.23
2019-03-15T05:48:02.806Z,6.53
2019-03-15T05:48:38.291Z,7.37
2019-03-15T05:49:13.722Z,7.10
2019-03-15T05:49:49.150Z,8.07
2019-03-15T05:50:24.668Z,6.00
2019-03-15T05:51:00.122Z,7.10
2019-03-15T05:51:35.569Z,7.23
2019-03-15T05:52:11.401Z,7.30
2019-03-15T05:52:46.817Z,7.00
2019-03-15T05:53:22.478Z,7.33
2019-03-15T05:53:58.259Z,7.90
2019-03-15T05:54:33.717Z,7.63
2019-03-15T05:55:10.771Z,8.13
2019-03-15T05:55:46.199Z,7.93
2019-03-15T05:56:21.620Z,8.23
2019-03-15T05:56:57.069Z,8.37
2019-03-15T05:57:32.773Z,6.93
2019-03-15T05:58:08.262Z,7.40
2019-03-15T05:58:45.177Z,8.00
2019-03-15T05:59:20.952Z,8.00
2019-03-15T05:59:56.397Z,8.10
2019-03-15T06:00:31.804Z,8.33
2019-03-15T06:01:07.256Z,7.57
2019-03-15T06:01:42.965Z,8.47
2019-03-15T06:02:18.410Z,7.67
2019-03-15T06:02:54.144Z,7.23
2019-03-15T06:03:29.662Z,8.13
2019-03-15T06:04:05.091Z,7.73
2019-03-15T06:04:41.552Z,7.80
2019-03-15T06:05:17.124Z,7.57
2019-03-15T06:05:52.585Z,7.33
2019-03-15T06:06:28.510Z,6.50
2019-03-15T06:07:03.999Z,6.43
2019-03-15T06:07:39.455Z,7.40
2019-03-15T06:08:15.218Z,6.90
2019-03-15T06:08:51.027Z,6.83
2019-03-15T06:09:26.504Z,7.37
2019-03-15T06:10:02.279Z,7.10
2019-03-15T06:10:37.767Z,5.90
2019-03-15T06:11:13.186Z,7.00
2019-03-15T06:11:48.644Z,7.03
2019-03-15T06:12:24.390Z,7.17
2019-03-15T06:12:59.929Z,7.33
2019-03-15T06:13:35.482Z,6.97
2019-03-15T06:14:11.293Z,7.33
2019-03-15T06:14:47.159Z,7.57
2019-03-15T06:15:22.603Z,7.97
2019-03-15T06:15:58.049Z,6.80
2019-03-15T06:16:33.847Z,7.27
2019-03-15T06:17:09.318Z,6.77
2019-03-15T06:17:44.740Z,7.07
2019-03-15T06:18:21.180Z,7.40
2019-03-15T06:18:56.608Z,8.03
2019-03-15T06:19:32.370Z,6.63
2019-03-15T06:20:08.821Z,8.00
2019-03-15T06:20:44.753Z,6.67
2019-03-15T06:21:20.176Z,7.33
2019-03-15T06:21:56.409Z,6.87
2019-03-15T06:22:31.868Z,7.57
2019-03-15T06:23:08.011Z,8.50
2019-03-15T06:23:43.434Z,7.83
2019-03-15T06:24:19.164Z,7.10
2019-03-15T06:24:54.932Z,7.63
2019-03-15T06:25:30.452Z,7.90
2019-03-15T06:26:06.196Z,7.50
2019-03-15T06:26:41.640Z,7.13
2019-03-15T06:27:17.099Z,8.33
2019-03-15T06:27:52.545Z,7.87
2019-03-15T06:28:28.328Z,8.13
2019-03-15T06:29:03.771Z,7.80
2019-03-15T06:29:39.285Z,8.07
2019-03-15T06:30:14.865Z,9.07
2019-03-15T06:30:50.289Z,8.83
2019-03-15T06:31:25.720Z,8.20
2019-03-15T06:32:01.151Z,8.27
2019-03-15T06:32:37.031Z,9.07
2019-03-15T06:33:12.464Z,8.60
2019-03-15T06:33:48.302Z,7.73
2019-03-15T06:34:23.734Z,7.83
2019-03-15T06:34:59.567Z,8.80
2019-03-15T06:35:35.062Z,8.63
2019-03-15T06:36:10.621Z,8.77
2019-03-15T06:36:46.052Z,8.00
2019-03-15T06:37:21.504Z,7.93
2019-03-15T06:37:56.925Z,7.37
2019-03-15T06:38:33.617Z,7.93
2019-03-15T06:39:09.247Z,8.03
2019-03-15T06:39:44.677Z,8.40
2019-03-15T06:40:20.210Z,8.03
2019-03-15T06:40:55.931Z,9.07
2019-03-15T06:41:31.670Z,8.50
2019-03-15T06:42:07.153Z,8.50
2019-03-15T06:42:42.621Z,8.80
2019-03-15T06:43:18.407Z,8.03
2019-03-15T06:43:53.841Z,9.20
2019-03-15T06:44:29.550Z,9.10
2019-03-15T06:45:06.219Z,9.30
2019-03-15T06:45:42.104Z,10.07
2019-03-15T06:46:17.876Z,8.50
2019-03-15T06:46:53.306Z,9.40
2019-03-15T06:47:29.982Z,9.97
2019-03-15T06:48:05.708Z,9.00
2019-03-15T06:48:41.259Z,9.30
2019-03-15T06:49:16.826Z,10.43
2019-03-15T06:49:52.571Z,9.43
2019-03-15T06:50:28.138Z,10.23
2019-03-15T06:51:03.580Z,10.30
2019-03-15T06:51:39.074Z,10.97
2019-03-15T06:52:14.528Z,10.97
2019-03-15T06:52:50.000Z,10.40
2019-03-15T06:53:25.425Z,10.97
2019-03-15T06:54:10.819Z,9.90
2019-03-15T06:54:38.363Z,9.33
2019-03-15T06:55:14.149Z,9.97
2019-03-15T06:55:49.864Z,10.53
2019-03-15T06:56:25.608Z,10.90
2019-03-15T06:57:01.053Z,11.33
2019-03-15T06:57:37.057Z,11.33
2019-03-15T06:58:12.480Z,11.60
2019-03-15T06:58:48.293Z,12.03
2019-03-15T06:59:23.891Z,10.90
2019-03-15T06:59:59.801Z,11.43
2019-03-15T07:00:35.776Z,11.10
2019-03-15T07:01:11.576Z,11.57
2019-03-15T07:01:47.002Z,11.70
2019-03-15T07:02:22.802Z,12.50
2019-03-15T07:02:58.668Z,11.23
2019-03-15T07:03:34.237Z,10.97
2019-03-15T07:04:09.716Z,12.03
2019-03-15T07:04:45.149Z,11.93
2019-03-15T07:05:21.120Z,12.50
2019-03-15T07:05:56.847Z,11.90
2019-03-15T07:06:32.276Z,11.07
2019-03-15T07:07:08.072Z,11.13
2019-03-15T07:07:43.607Z,10.57
2019-03-15T07:08:18.977Z,12.33
2019-03-15T07:08:54.412Z,11.53
2019-03-15T07:09:31.014Z,11.80
2019-03-15T07:10:06.764Z,11.63
2019-03-15T07:10:44.215Z,11.77
2019-03-15T07:11:19.647Z,11.73
2019-03-15T07:12:08.655Z,11.33
2019-03-15T07:12:32.620Z,11.47
2019-03-15T07:13:08.093Z,12.07
2019-03-15T07:13:43.548Z,12.53
2019-03-15T07:14:18.966Z,12.80
2019-03-15T07:14:54.395Z,12.23
2019-03-15T07:15:30.163Z,11.40
2019-03-15T07:16:05.985Z,12.27
2019-03-15T07:16:41.716Z,12.10
2019-03-15T07:17:17.163Z,12.90
2019-03-15T07:17:52.882Z,12.07
2019-03-15T07:18:28.647Z,10.67
2019-03-15T07:19:04.097Z,12.17
2019-03-15T07:19:39.996Z,11.90
2019-03-15T07:20:16.209Z,12.57
2019-03-15T07:20:52.010Z,11.93
2019-03-15T07:21:27.793Z,12.37
2019-03-15T07:22:03.701Z,11.83
2019-03-15T07:22:40.048Z,11.93
2019-03-15T07:23:15.793Z,10.60
2019-03-15T07:23:51.308Z,11.60
2019-03-15T07:24:27.472Z,10.90
2019-03-15T07:25:03.212Z,11.40
2019-03-15T07:25:38.753Z,11.53
2019-03-15T07:26:14.186Z,12.03
2019-03-15T07:26:50.174Z,10.97
2019-03-15T07:27:25.993Z,11.63
2019-03-15T07:28:01.424Z,10.73
2019-03-15T07:28:37.233Z,11.90
2019-03-15T07:29:12.658Z,10.90
2019-03-15T07:29:48.109Z,10.67
2019-03-15T07:30:23.858Z,11.47
2019-03-15T07:30:59.285Z,10.93
2019-03-15T07:31:34.763Z,11.43
2019-03-15T07:32:10.225Z,11.67
2019-03-15T07:32:45.680Z,10.70
2019-03-15T07:33:21.156Z,11.07
2019-03-15T07:33:56.531Z,11.57
2019-03-15T07:34:32.304Z,11.93
2019-03-15T07:35:07.882Z,11.03
2019-03-15T07:35:43.312Z,10.77
2019-03-15T07:36:19.146Z,10.90
2019-03-15T07:36:55.480Z,11.13
2019-03-15T07:37:31.001Z,10.47
2019-03-15T07:38:06.568Z,9.70
2019-03-15T07:38:42.333Z,10.20
2019-03-15T07:39:17.843Z,10.50
2019-03-15T07:39:53.279Z,10.07
2019-03-15T07:40:28.824Z,10.43
2019-03-15T07:41:04.271Z,10.27
2019-03-15T07:41:39.752Z,10.00
2019-03-15T07:42:15.188Z,10.77
2019-03-15T07:42:50.867Z,10.43
2019-03-15T07:43:26.331Z,10.77
2019-03-15T07:44:01.749Z,10.33
2019-03-15T07:44:37.857Z,10.57
2019-03-15T07:45:13.920Z,10.20
2019-03-15T07:45:49.355Z,10.47
2019-03-15T07:46:25.071Z,10.00
2019-03-15T07:47:00.811Z,10.13
2019-03-15T07:47:36.272Z,10.43
2019-03-15T07:48:21.980Z,10.90
2019-03-15T07:48:49.378Z,10.43
2019-03-15T07:49:25.550Z,11.20
2019-03-15T07:50:00.967Z,11.53
2019-03-15T07:50:36.434Z,10.77
2019-03-15T07:51:12.240Z,11.30
2019-03-15T07:51:47.976Z,10.67
2019-03-15T07:52:23.824Z,10.73
2019-03-15T07:52:59.561Z,11.07